Time;durP1;ratioP1;P1;durP2;ratioP2;P2;SDS_P1;SDS_P2;PMS_P1;PMS_P2;Temp;Humidity;BMP_temperature;BMP_pressure;BME280_temperature;BME280_humidity;BME280_pressure;Samples;Min_cycle;Max_cycle;Signal;HPM_P1;HPM_P2
2023/07/05 00:01:48;;;;;;;9.33;5.40;;;19.60;93.20;;;;;;5034794;28;20463;-78
2023/07/05 00:04:14;;;;;;;7.10;6.40;;;19.60;93.20;;;;;;5035715;28;20468;-78
2023/07/05 00:06:41;;;;;;;6.17;5.50;;;19.60;93.40;;;;;;5027937;28;20473;-79
2023/07/05 00:09:09;;;;;;;12.07;10.17;;;19.60;93.30;;;;;;5018321;28;20521;-78
2023/07/05 00:11:36;;;;;;;20.37;14.20;;;19.60;93.40;;;;;;5025081;28;20465;-78
2023/07/05 00:14:06;;;;;;;12.67;10.40;;;19.60;93.20;;;;;;5021398;28;20476;-78
2023/07/05 00:16:33;;;;;;;13.97;10.70;;;19.50;93.00;;;;;;5035547;28;20480;-77
2023/07/05 00:19:00;;;;;;;12.90;10.47;;;19.50;92.90;;;;;;5034843;28;20542;-77
2023/07/05 00:21:28;;;;;;;13.90;10.03;;;19.50;92.90;;;;;;5036040;28;20464;-79
2023/07/05 00:23:55;;;;;;;12.07;9.80;;;19.50;92.80;;;;;;5035050;28;20825;-78
2023/07/05 00:26:24;;;;;;;7.63;6.83;;;19.50;92.90;;;;;;5035625;28;20995;-78
2023/07/05 00:28:51;;;;;;;8.77;7.53;;;19.50;92.90;;;;;;5020749;28;20519;-77
2023/07/05 00:31:19;;;;;;;7.13;6.10;;;19.40;92.90;;;;;;5023269;28;20474;-79
2023/07/05 00:33:47;;;;;;;10.50;8.20;;;19.40;92.90;;;;;;5035026;28;20949;-77
2023/07/05 00:36:14;;;;;;;8.63;6.90;;;19.40;92.90;;;;;;5034882;28;20948;-78
2023/07/05 00:38:41;;;;;;;7.67;5.77;;;19.40;93.00;;;;;;5035342;28;20475;-78
2023/07/05 00:41:08;;;;;;;8.60;7.60;;;19.40;93.00;;;;;;5034790;28;20961;-78
2023/07/05 00:43:35;;;;;;;8.53;6.80;;;19.30;93.00;;;;;;5023819;28;20472;-77
2023/07/05 00:46:12;;;;;;;8.20;5.70;;;19.30;93.00;;;;;;5014224;28;20477;-78
2023/07/05 00:48:47;;;;;;;8.30;6.67;;;19.30;93.10;;;;;;5016738;28;20487;-78
2023/07/05 00:51:17;;;;;;;17.80;14.20;;;19.30;93.20;;;;;;5026124;28;20455;-78
2023/07/05 00:53:44;;;;;;;14.73;10.53;;;19.20;93.30;;;;;;5024506;28;20460;-79
2023/07/05 00:56:18;;;;;;;9.27;6.47;;;19.20;93.40;;;;;;5026412;28;21073;-79
2023/07/05 00:58:46;;;;;;;8.60;6.90;;;19.20;93.40;;;;;;5026793;28;20962;-79
2023/07/05 01:01:13;;;;;;;8.50;6.03;;;19.10;93.40;;;;;;5024008;28;20551;-79
2023/07/05 01:03:43;;;;;;;15.03;9.57;;;19.10;93.50;;;;;;5028390;28;20544;-77
2023/07/05 01:06:13;;;;;;;6.47;5.87;;;19.20;93.60;;;;;;5027603;28;20482;-77
2023/07/05 01:08:41;;;;;;;6.37;5.77;;;19.10;93.60;;;;;;5021138;28;20552;-77
2023/07/05 01:11:22;;;;;;;11.30;9.00;;;19.10;93.70;;;;;;5023650;28;20982;-78
2023/07/05 01:13:59;;;;;;;10.57;8.60;;;19.10;93.80;;;;;;5030425;28;20465;-78
2023/07/05 01:16:39;;;;;;;7.70;5.50;;;19.10;93.90;;;;;;5014141;28;20548;-79
2023/07/05 01:19:26;;;;;;;10.83;6.73;;;19.10;94.00;;;;;;5013892;28;20468;-78
2023/07/05 01:22:00;;;;;;;8.87;7.93;;;19.00;94.00;;;;;;5015308;28;20500;-78
2023/07/05 01:24:56;;;;;;;11.90;8.57;;;19.00;94.00;;;;;;5014291;28;20484;-78
2023/07/05 01:27:51;;;;;;;8.63;6.97;;;19.00;94.00;;;;;;5025172;28;20522;-79
2023/07/05 01:30:54;;;;;;;16.40;13.17;;;19.10;94.00;;;;;;5013936;28;20568;-78
2023/07/05 01:33:31;;;;;;;7.03;6.10;;;19.00;94.00;;;;;;5013848;28;21006;-77
2023/07/05 01:35:59;;;;;;;13.57;12.17;;;19.00;93.90;;;;;;5016746;28;20541;-77
2023/07/05 01:38:25;;;;;;;17.50;11.80;;;19.10;94.00;;;;;;5022883;28;20460;-80
2023/07/05 01:40:56;;;;;;;8.23;7.40;;;19.00;94.00;;;;;;5017246;28;20570;-80
2023/07/05 01:43:26;;;;;;;11.70;5.87;;;19.00;94.10;;;;;;5023027;28;20857;-78
2023/07/05 01:46:10;;;;;;;8.83;7.50;;;19.00;94.00;;;;;;5034247;28;20978;-79
2023/07/05 01:48:49;;;;;;;8.20;6.60;;;19.00;93.90;;;;;;5025899;28;20540;-79
2023/07/05 01:51:23;;;;;;;10.17;6.80;;;19.00;93.90;;;;;;5033685;28;20484;-79
2023/07/05 01:54:02;;;;;;;5.80;5.30;;;19.00;93.90;;;;;;5032347;28;20813;-80
2023/07/05 01:56:33;;;;;;;12.20;8.97;;;18.90;93.90;;;;;;5033606;28;20468;-80
2023/07/05 01:59:03;;;;;;;9.13;6.73;;;18.90;94.10;;;;;;5033395;28;20543;-80
2023/07/05 02:01:32;;;;;;;6.30;5.67;;;18.90;94.10;;;;;;5033649;28;20472;-79
2023/07/05 02:04:03;;;;;;;7.00;5.70;;;18.90;94.10;;;;;;5033940;28;21000;-79
2023/07/05 02:06:32;;;;;;;7.87;4.93;;;18.90;94.00;;;;;;5033315;28;20476;-79
2023/07/05 02:08:59;;;;;;;7.30;5.73;;;18.80;93.90;;;;;;5033973;28;20518;-80
2023/07/05 02:14:47;;;;;;;8.73;7.50;;;18.80;93.90;;;;;;5019681;28;20464;-78
2023/07/05 02:17:16;;;;;;;6.03;5.43;;;18.80;94.00;;;;;;5012318;28;20465;-78
2023/07/05 02:19:44;;;;;;;9.20;8.20;;;18.80;94.00;;;;;;5029141;28;20518;-77
2023/07/05 02:22:11;;;;;;;6.67;5.97;;;18.70;94.00;;;;;;5024194;28;20465;-78
2023/07/05 02:24:39;;;;;;;8.93;6.70;;;18.70;93.90;;;;;;5027535;28;20969;-78
2023/07/05 02:27:06;;;;;;;8.70;7.80;;;18.80;93.90;;;;;;5031265;28;20910;-79
2023/07/05 02:29:33;;;;;;;6.20;5.53;;;18.80;94.00;;;;;;5031355;28;20472;-80
2023/07/05 02:32:00;;;;;;;7.53;6.30;;;18.80;93.90;;;;;;5033054;28;20468;-79
2023/07/05 02:34:27;;;;;;;12.57;7.87;;;18.90;94.00;;;;;;5031750;28;20476;-80
2023/07/05 02:36:56;;;;;;;5.70;5.10;;;18.90;93.90;;;;;;5031384;28;20551;-79
2023/07/05 02:39:23;;;;;;;7.00;6.50;;;18.90;93.90;;;;;;5032638;28;20887;-79
2023/07/05 02:41:50;;;;;;;9.07;7.00;;;18.90;93.90;;;;;;5032927;28;20547;-80
2023/07/05 02:44:16;;;;;;;5.63;5.13;;;18.90;93.90;;;;;;5026030;28;20473;-79
2023/07/05 02:46:43;;;;;;;6.03;5.20;;;18.90;93.80;;;;;;5031204;28;20542;-79
2023/07/05 02:49:10;;;;;;;11.77;10.53;;;18.90;93.80;;;;;;5033108;28;20560;-79
2023/07/05 02:51:37;;;;;;;12.63;10.47;;;18.90;93.90;;;;;;5033098;28;20468;-80
2023/07/05 02:54:05;;;;;;;11.40;9.70;;;18.80;94.10;;;;;;5032721;28;20872;-80
2023/07/05 02:56:32;;;;;;;7.30;6.60;;;18.90;94.20;;;;;;5032765;28;20480;-80
2023/07/05 02:58:59;;;;;;;7.40;6.33;;;18.80;94.10;;;;;;5033058;28;20495;-80
2023/07/05 03:01:26;;;;;;;14.33;12.23;;;18.80;94.10;;;;;;5032951;28;20491;-80
2023/07/05 03:03:53;;;;;;;9.03;6.90;;;18.80;94.30;;;;;;5032388;28;20680;-80
2023/07/05 03:06:20;;;;;;;9.37;7.90;;;18.80;94.30;;;;;;5031750;28;20472;-79
2023/07/05 03:08:49;;;;;;;12.00;5.33;;;18.80;94.40;;;;;;5031894;28;20476;-78
2023/07/05 03:11:17;;;;;;;8.27;6.23;;;18.70;94.20;;;;;;5033189;28;20472;-79
2023/07/05 03:13:44;;;;;;;8.43;6.63;;;18.60;94.20;;;;;;5032582;28;20551;-80
2023/07/05 03:16:11;;;;;;;8.37;5.30;;;18.60;94.20;;;;;;5032607;28;20798;-79
2023/07/05 03:18:38;;;;;;;10.57;8.10;;;18.50;94.10;;;;;;5032631;28;20488;-79
2023/07/05 03:21:05;;;;;;;7.40;6.67;;;18.50;94.20;;;;;;5033258;28;20492;-80
2023/07/05 03:23:32;;;;;;;5.70;5.20;;;18.50;94.10;;;;;;5032692;28;20553;-80
2023/07/05 03:26:02;;;;;;;11.30;6.43;;;18.50;94.10;;;;;;5032300;28;20543;-80
2023/07/05 03:28:33;;;;;;;9.43;8.07;;;18.40;94.20;;;;;;5032817;28;20487;-79
2023/07/05 03:31:03;;;;;;;9.43;5.40;;;18.40;94.20;;;;;;5032770;28;20468;-79
2023/07/05 03:33:30;;;;;;;9.97;8.67;;;18.40;94.20;;;;;;5032653;28;20475;-78
2023/07/05 03:35:58;;;;;;;10.70;9.33;;;18.40;94.20;;;;;;5034732;28;20534;-78
2023/07/05 03:38:26;;;;;;;9.27;6.00;;;18.50;94.30;;;;;;5036967;28;20539;-79
2023/07/05 03:41:00;;;;;;;7.13;5.67;;;18.50;94.60;;;;;;5036357;28;20467;-79
2023/07/05 03:43:28;;;;;;;5.13;4.63;;;18.50;94.20;;;;;;5037296;28;20487;-80
2023/07/05 03:45:58;;;;;;;6.87;5.50;;;18.50;94.00;;;;;;5036301;28;20496;-79
2023/07/05 03:48:25;;;;;;;8.50;7.60;;;18.50;94.10;;;;;;5036685;28;20486;-79
2023/07/05 03:50:56;;;;;;;7.03;5.50;;;18.60;94.10;;;;;;5036092;28;20504;-78
2023/07/05 03:53:23;;;;;;;12.10;5.70;;;18.60;94.00;;;;;;5036888;28;20507;-79
2023/07/05 03:55:50;;;;;;;6.27;5.37;;;18.60;94.00;;;;;;5036210;28;20555;-79
2023/07/05 03:58:17;;;;;;;8.53;7.37;;;18.60;93.90;;;;;;5036614;28;20475;-80
2023/07/05 04:00:45;;;;;;;6.80;5.67;;;18.60;93.90;;;;;;5036163;28;20829;-80
2023/07/05 04:03:13;;;;;;;10.63;5.63;;;18.60;93.70;;;;;;5036596;28;20475;-79
2023/07/05 04:05:41;;;;;;;7.97;5.20;;;18.70;93.90;;;;;;5035463;28;20476;-79
2023/07/05 04:08:08;;;;;;;6.83;5.47;;;18.70;93.90;;;;;;5036789;28;20475;-80
2023/07/05 04:10:35;;;;;;;6.10;5.07;;;18.70;93.90;;;;;;5035879;28;21023;-81
2023/07/05 04:13:02;;;;;;;7.87;5.50;;;18.70;93.90;;;;;;5036031;28;20489;-80
2023/07/05 04:15:29;;;;;;;6.03;4.90;;;18.70;93.90;;;;;;5035973;28;20523;-80
2023/07/05 04:17:56;;;;;;;11.10;9.50;;;18.70;93.90;;;;;;5035746;28;20554;-80
2023/07/05 04:20:24;;;;;;;13.97;8.27;;;18.70;94.00;;;;;;5035650;28;20559;-80
2023/07/05 04:22:53;;;;;;;7.37;6.10;;;18.70;94.00;;;;;;5035745;28;20788;-80
2023/07/05 04:25:20;;;;;;;9.30;6.40;;;18.70;93.90;;;;;;5036256;28;20796;-79
2023/07/05 04:27:47;;;;;;;10.00;7.40;;;18.80;93.90;;;;;;5035121;28;20993;-79
2023/07/05 04:30:14;;;;;;;7.33;6.13;;;18.90;93.90;;;;;;5035947;28;20556;-80
2023/07/05 04:32:41;;;;;;;7.63;6.67;;;18.90;93.70;;;;;;5035715;28;20483;-79
2023/07/05 04:35:09;;;;;;;6.53;5.37;;;18.90;93.60;;;;;;5036081;28;20954;-79
2023/07/05 04:37:37;;;;;;;6.63;6.03;;;18.90;93.60;;;;;;5036106;28;20523;-78
2023/07/05 04:40:05;;;;;;;6.67;4.97;;;18.90;93.40;;;;;;5035345;28;20526;-81
2023/07/05 04:42:31;;;;;;;6.23;5.63;;;18.90;93.50;;;;;;5035974;28;20468;-80
2023/07/05 04:44:58;;;;;;;7.00;6.30;;;18.90;93.50;;;;;;5034439;28;20565;-78
2023/07/05 04:47:25;;;;;;;9.10;5.80;;;19.00;93.50;;;;;;5035519;28;20507;-81
2023/07/05 04:49:52;;;;;;;7.50;5.30;;;19.00;93.30;;;;;;5035336;28;20478;-79
2023/07/05 04:52:19;;;;;;;7.87;5.23;;;19.10;93.40;;;;;;5035658;28;20857;-78
2023/07/05 04:54:49;;;;;;;5.93;5.23;;;19.10;93.50;;;;;;5034985;28;20479;-78
2023/07/05 04:57:16;;;;;;;6.77;5.93;;;19.10;93.20;;;;;;5035747;28;20526;-79
2023/07/05 04:59:43;;;;;;;7.03;5.40;;;19.10;93.20;;;;;;5034209;28;20500;-80
2023/07/05 05:02:10;;;;;;;10.20;7.80;;;19.10;93.10;;;;;;5035679;28;20464;-80
2023/07/05 05:04:38;;;;;;;6.30;5.70;;;19.10;93.10;;;;;;5035596;28;20468;-80
2023/07/05 05:07:09;;;;;;;9.93;7.37;;;19.20;93.20;;;;;;5034682;28;20478;-78
2023/07/05 05:09:40;;;;;;;9.83;7.63;;;19.20;93.10;;;;;;5035216;28;20468;-80
2023/07/05 05:12:09;;;;;;;9.67;5.80;;;19.20;93.20;;;;;;5034645;28;20452;-80
2023/07/05 05:14:36;;;;;;;7.47;5.17;;;19.20;93.30;;;;;;5035354;28;20871;-79
2023/07/05 05:17:03;;;;;;;9.50;5.30;;;19.30;93.50;;;;;;5034432;28;20507;-79
2023/07/05 05:19:30;;;;;;;7.57;6.87;;;19.40;93.70;;;;;;5035228;28;20547;-79
2023/07/05 05:21:57;;;;;;;6.50;5.80;;;19.40;93.50;;;;;;5024944;28;20567;-78
2023/07/05 05:24:27;;;;;;;8.07;5.17;;;19.50;93.40;;;;;;5035398;28;20818;-78
2023/07/05 05:26:57;;;;;;;6.07;5.17;;;19.50;93.20;;;;;;5035011;28;20978;-79
2023/07/05 05:29:26;;;;;;;5.50;5.00;;;19.60;93.20;;;;;;5034801;28;20546;-80
2023/07/05 05:31:53;;;;;;;9.13;6.80;;;19.60;93.10;;;;;;5034567;28;20476;-79
2023/07/05 05:34:20;;;;;;;6.93;5.53;;;19.70;93.30;;;;;;5034838;28;20468;-80
2023/07/05 05:36:49;;;;;;;8.70;5.90;;;19.70;93.00;;;;;;5034639;28;20471;-79
2023/07/05 05:39:16;;;;;;;6.00;5.40;;;19.70;92.80;;;;;;5034659;28;20460;-80
2023/07/05 05:41:43;;;;;;;9.93;6.30;;;19.70;92.80;;;;;;5034769;28;20471;-81
2023/07/05 05:44:10;;;;;;;9.43;5.77;;;19.70;92.90;;;;;;5039874;28;20473;-80
2023/07/05 05:46:39;;;;;;;7.63;6.50;;;19.80;93.00;;;;;;5041276;28;20507;-80
2023/07/05 05:49:06;;;;;;;6.17;5.30;;;19.80;92.90;;;;;;5040306;28;20609;-79
2023/07/05 05:51:32;;;;;;;6.53;5.70;;;19.90;92.90;;;;;;5043743;28;20464;-79
2023/07/05 05:53:59;;;;;;;7.47;6.60;;;19.90;92.90;;;;;;5036365;28;20547;-78
2023/07/05 05:56:26;;;;;;;6.97;5.67;;;20.00;92.90;;;;;;5037600;28;20543;-79
2023/07/05 05:58:53;;;;;;;10.17;5.57;;;20.00;92.90;;;;;;5033963;28;20498;-79
2023/07/05 06:01:20;;;;;;;8.37;5.83;;;20.10;93.00;;;;;;5038610;28;20460;-79
2023/07/05 06:03:48;;;;;;;6.70;5.57;;;20.00;92.90;;;;;;5036381;28;20511;-80
2023/07/05 06:06:15;;;;;;;6.20;5.60;;;20.00;93.20;;;;;;5036003;28;20499;-80
2023/07/05 06:08:42;;;;;;;8.27;5.80;;;20.00;93.10;;;;;;5037296;28;20559;-79
2023/07/05 06:11:09;;;;;;;6.67;5.93;;;20.00;93.20;;;;;;5035652;28;20504;-80
2023/07/05 06:13:36;;;;;;;6.63;5.70;;;20.10;93.30;;;;;;5026600;28;20468;-80
2023/07/05 06:16:05;;;;;;;9.63;6.40;;;20.00;93.30;;;;;;5033761;28;20495;-79
2023/07/05 06:18:32;;;;;;;7.27;6.20;;;20.00;93.30;;;;;;5034380;28;20456;-78
2023/07/05 06:21:00;;;;;;;7.77;5.90;;;20.10;93.40;;;;;;5033617;28;20459;-79
2023/07/05 06:23:27;;;;;;;8.73;6.27;;;20.10;93.30;;;;;;5034454;28;20575;-78
2023/07/05 06:25:54;;;;;;;8.00;6.57;;;20.10;93.40;;;;;;5033658;28;20476;-80
2023/07/05 06:28:21;;;;;;;8.83;7.40;;;20.10;93.40;;;;;;5033892;28;20545;-79
2023/07/05 06:30:48;;;;;;;8.73;6.30;;;20.20;93.50;;;;;;5034002;28;20499;-79
2023/07/05 06:33:15;;;;;;;9.53;7.23;;;20.20;93.50;;;;;;5032591;28;20503;-79
2023/07/05 06:35:47;;;;;;;8.10;6.50;;;20.20;93.60;;;;;;5033885;28;20506;-79
2023/07/05 06:38:16;;;;;;;7.67;6.37;;;20.20;93.60;;;;;;5023336;28;20486;-79
2023/07/05 06:40:43;;;;;;;9.47;6.50;;;20.20;93.90;;;;;;5033210;28;20833;-79
2023/07/05 06:43:10;;;;;;;9.10;6.67;;;20.30;93.60;;;;;;5033112;28;20460;-79
2023/07/05 06:45:37;;;;;;;9.20;7.70;;;20.40;93.50;;;;;;5033646;28;20863;-79
2023/07/05 06:48:10;;;;;;;9.50;7.07;;;20.40;93.90;;;;;;5033015;28;20471;-81
2023/07/05 06:50:37;;;;;;;10.20;7.23;;;20.40;93.40;;;;;;5032910;28;20469;-80
2023/07/05 06:53:13;;;;;;;9.70;7.30;;;20.50;93.30;;;;;;5033099;28;20564;-80
2023/07/05 06:55:42;;;;;;;10.33;7.77;;;20.60;93.30;;;;;;5032705;28;20476;-80
2023/07/05 06:58:09;;;;;;;15.53;7.37;;;20.60;93.20;;;;;;5032528;28;20556;-80
2023/07/05 07:00:36;;;;;;;8.50;7.03;;;20.70;93.30;;;;;;5032840;28;20468;-80
2023/07/05 07:03:04;;;;;;;8.00;7.17;;;20.80;93.20;;;;;;5032772;28;20555;-80
2023/07/05 07:05:31;;;;;;;9.87;7.60;;;20.90;93.00;;;;;;5032638;28;20452;-80
2023/07/05 07:07:58;;;;;;;8.53;7.80;;;21.00;93.00;;;;;;5033223;28;20472;-80
2023/07/05 07:10:25;;;;;;;11.40;7.87;;;21.20;93.00;;;;;;5031703;28;20563;-80
2023/07/05 07:12:54;;;;;;;12.90;8.60;;;21.30;92.90;;;;;;5032848;28;20504;-80
2023/07/05 07:15:23;;;;;;;12.20;8.40;;;21.50;92.80;;;;;;5032394;28;20506;-80
2023/07/05 07:17:51;;;;;;;9.33;7.83;;;21.50;92.50;;;;;;5033196;28;20562;-80
2023/07/05 07:20:19;;;;;;;9.70;8.50;;;21.60;92.60;;;;;;5032089;28;20460;-81
2023/07/05 07:22:46;;;;;;;9.37;8.40;;;21.70;92.20;;;;;;5033112;28;20513;-81
2023/07/05 07:25:13;;;;;;;11.23;8.57;;;21.80;92.50;;;;;;5032515;28;20556;-80
2023/07/05 07:27:40;;;;;;;13.10;8.50;;;21.90;92.00;;;;;;5033874;28;20495;-80
2023/07/05 07:30:09;;;;;;;12.27;9.80;;;22.00;91.80;;;;;;5033598;28;20559;-80
2023/07/05 07:32:35;;;;;;;11.70;8.80;;;22.00;91.60;;;;;;5033027;28;20535;-80
2023/07/05 07:35:03;;;;;;;11.67;10.00;;;22.20;91.70;;;;;;5033267;28;20543;-80
2023/07/05 07:37:32;;;;;;;12.13;9.60;;;22.40;91.40;;;;;;5033418;28;20542;-78
2023/07/05 07:39:59;;;;;;;11.50;10.33;;;22.50;91.10;;;;;;5032993;28;20535;-78
2023/07/05 07:42:27;;;;;;;10.93;9.93;;;22.60;90.90;;;;;;5032749;28;20859;-78
2023/07/05 07:44:55;;;;;;;11.47;9.30;;;22.80;91.00;;;;;;5033047;28;20476;-79
2023/07/05 07:47:23;;;;;;;11.60;10.37;;;22.90;91.00;;;;;;5032625;28;20483;-80
2023/07/05 07:49:51;;;;;;;11.93;10.73;;;23.00;90.90;;;;;;5033247;28;20500;-78
2023/07/05 07:52:18;;;;;;;11.00;9.90;;;23.10;90.70;;;;;;5032683;28;20468;-80
2023/07/05 07:54:50;;;;;;;12.00;9.40;;;23.10;90.40;;;;;;5031660;28;20499;-80
2023/07/05 07:57:17;;;;;;;11.77;10.23;;;23.20;90.40;;;;;;5032784;28;20562;-80
2023/07/05 07:59:45;;;;;;;13.23;11.10;;;23.20;90.40;;;;;;5032520;28;20475;-80
2023/07/05 08:02:13;;;;;;;13.00;11.70;;;23.30;90.40;;;;;;5032676;28;20496;-79
2023/07/05 08:04:44;;;;;;;13.13;10.90;;;23.30;90.20;;;;;;5032579;28;20561;-79
2023/07/05 08:07:11;;;;;;;12.10;10.80;;;23.30;90.20;;;;;;5032815;28;20503;-79
2023/07/05 08:09:38;;;;;;;12.30;11.00;;;23.40;90.20;;;;;;5032948;28;20487;-80
2023/07/05 08:12:06;;;;;;;12.60;11.40;;;23.40;90.30;;;;;;5032425;28;20554;-80
2023/07/05 08:14:33;;;;;;;12.93;11.63;;;23.50;90.40;;;;;;5032096;28;20476;-80
2023/07/05 08:17:02;;;;;;;12.70;11.40;;;23.50;90.50;;;;;;5032236;28;20974;-81
2023/07/05 08:19:30;;;;;;;18.13;11.80;;;23.60;90.40;;;;;;5032215;28;20481;-80
2023/07/05 08:21:59;;;;;;;14.13;12.60;;;23.70;90.20;;;;;;5034263;28;20472;-79
2023/07/05 08:24:25;;;;;;;15.40;13.87;;;23.80;89.80;;;;;;5035487;28;20467;-79
2023/07/05 08:26:53;;;;;;;15.13;13.70;;;23.80;89.70;;;;;;5036313;28;20875;-80
2023/07/05 08:29:22;;;;;;;14.10;12.70;;;23.70;89.80;;;;;;5036097;28;20472;-80
2023/07/05 08:31:50;;;;;;;22.57;13.63;;;23.70;90.10;;;;;;5036022;28;20476;-80
2023/07/05 08:34:17;;;;;;;14.30;12.83;;;23.60;90.10;;;;;;5035802;28;20807;-80
2023/07/05 08:36:46;;;;;;;15.93;13.70;;;23.60;90.30;;;;;;5035230;28;20490;-80
2023/07/05 08:39:14;;;;;;;14.33;12.87;;;23.70;90.40;;;;;;5036234;28;20557;-80
2023/07/05 08:42:14;;;;;;;13.87;12.00;;;23.70;90.60;;;;;;5035954;28;20474;-79
2023/07/05 08:44:51;;;;;;;15.83;13.70;;;23.70;90.90;;;;;;5029137;28;20961;-79
2023/07/05 08:47:24;;;;;;;18.33;13.47;;;23.60;90.90;;;;;;5039013;28;20464;-79
2023/07/05 08:50:07;;;;;;;17.83;15.77;;;23.60;90.90;;;;;;5040183;28;20491;-80
2023/07/05 08:52:38;;;;;;;15.37;13.60;;;23.60;91.30;;;;;;5038755;28;20546;-79
2023/07/05 08:55:12;;;;;;;14.70;13.33;;;23.50;91.00;;;;;;5037044;28;20472;-79
2023/07/05 08:57:44;;;;;;;15.23;13.63;;;23.60;91.10;;;;;;5036691;28;20467;-80
2023/07/05 09:00:15;;;;;;;12.97;11.77;;;23.70;91.30;;;;;;5036752;28;20539;-80
2023/07/05 09:02:42;;;;;;;14.40;12.97;;;23.70;91.30;;;;;;5036187;28;20506;-79
2023/07/05 09:05:16;;;;;;;13.90;12.60;;;23.80;91.40;;;;;;5038395;28;20476;-80
2023/07/05 09:08:08;;;;;;;17.20;13.33;;;23.80;91.80;;;;;;5034369;28;20483;-80
2023/07/05 09:10:42;;;;;;;16.37;14.60;;;23.90;92.10;;;;;;5035289;28;20490;-80
2023/07/05 09:13:16;;;;;;;16.37;12.60;;;23.90;92.20;;;;;;5037077;28;20487;-80
2023/07/05 09:15:49;;;;;;;13.93;11.50;;;23.90;91.90;;;;;;5035977;28;20502;-80
2023/07/05 09:18:22;;;;;;;11.60;10.40;;;23.90;91.80;;;;;;5036057;28;20472;-78
2023/07/05 09:21:03;;;;;;;11.20;10.10;;;24.00;91.50;;;;;;5035101;28;20471;-79
2023/07/05 09:23:35;;;;;;;10.73;9.60;;;24.00;91.40;;;;;;5035338;28;20468;-79
2023/07/05 09:26:09;;;;;;;11.87;10.10;;;24.00;91.40;;;;;;5035567;28;21009;-79
2023/07/05 09:28:42;;;;;;;10.60;9.50;;;24.10;91.70;;;;;;5035277;28;20478;-80
2023/07/05 09:31:12;;;;;;;11.97;9.67;;;24.10;91.30;;;;;;5035962;28;20479;-80
2023/07/05 09:33:44;;;;;;;10.10;9.20;;;24.00;91.10;;;;;;5035412;28;20472;-80
2023/07/05 09:36:17;;;;;;;10.80;9.70;;;24.00;91.20;;;;;;5036393;28;20480;-79
2023/07/05 09:38:50;;;;;;;10.07;9.17;;;24.00;91.20;;;;;;5036095;28;20954;-79
2023/07/05 09:41:29;;;;;;;12.53;11.33;;;24.00;90.90;;;;;;5038091;28;20563;-79
2023/07/05 09:43:57;;;;;;;11.07;9.43;;;23.90;91.00;;;;;;5041539;28;20953;-79
2023/07/05 09:46:29;;;;;;;10.10;9.07;;;23.90;91.10;;;;;;5038912;28;20472;-79
2023/07/05 09:48:57;;;;;;;14.43;9.20;;;23.90;91.20;;;;;;5037935;28;20554;-79
2023/07/05 09:51:24;;;;;;;9.40;8.40;;;23.90;91.40;;;;;;5036928;28;20468;-80
2023/07/05 09:53:56;;;;;;;9.57;8.67;;;23.90;91.30;;;;;;5035828;28;20479;-80
2023/07/05 09:56:28;;;;;;;9.60;8.10;;;24.00;91.40;;;;;;5036981;28;20480;-81
2023/07/05 09:59:08;;;;;;;10.80;9.67;;;24.00;91.40;;;;;;5035163;28;20484;-78
2023/07/05 10:01:38;;;;;;;9.90;8.97;;;24.00;91.70;;;;;;5035495;28;20526;-80
2023/07/05 10:04:06;;;;;;;15.30;13.70;;;24.00;91.80;;;;;;5035948;28;20500;-80
2023/07/05 10:06:34;;;;;;;23.77;21.03;;;24.10;91.90;;;;;;5036103;28;20484;-79
2023/07/05 10:09:09;;;;;;;15.33;13.90;;;24.20;91.90;;;;;;5035233;28;20579;-79
2023/07/05 10:11:44;;;;;;;10.87;9.73;;;24.20;91.90;;;;;;5035435;28;20460;-79
2023/07/05 10:14:16;;;;;;;10.47;8.83;;;24.30;92.20;;;;;;5035746;28;20481;-80
2023/07/05 10:16:55;;;;;;;9.60;7.30;;;24.40;92.30;;;;;;5036453;28;20475;-78
2023/07/05 10:19:33;;;;;;;14.03;8.30;;;24.50;92.00;;;;;;5035423;28;20522;-79
2023/07/05 10:22:06;;;;;;;10.30;8.30;;;24.40;91.90;;;;;;5034702;28;20460;-80
2023/07/05 10:24:38;;;;;;;9.47;8.57;;;24.40;92.10;;;;;;5035120;28;20508;-79
2023/07/05 10:27:12;;;;;;;8.77;7.97;;;24.50;92.20;;;;;;5034343;28;20464;-79
2023/07/05 10:29:42;;;;;;;9.27;8.00;;;24.50;92.40;;;;;;5034366;28;20509;-81
2023/07/05 10:32:18;;;;;;;8.50;7.70;;;24.60;92.40;;;;;;5034369;28;20455;-80
2023/07/05 10:34:50;;;;;;;11.83;8.73;;;24.60;92.50;;;;;;5034207;28;20459;-81
2023/07/05 10:37:30;;;;;;;8.77;7.87;;;24.70;92.60;;;;;;5034259;28;20768;-79
2023/07/05 10:39:58;;;;;;;9.30;8.40;;;24.80;92.70;;;;;;5032805;28;20468;-80
2023/07/05 10:42:27;;;;;;;21.93;9.43;;;25.00;92.80;;;;;;5033742;28;20472;-78
2023/07/05 10:44:57;;;;;;;9.03;7.73;;;25.10;92.90;;;;;;5032457;28;20534;-80
2023/07/05 10:47:25;;;;;;;7.77;7.10;;;25.20;92.80;;;;;;5035475;28;20490;-79
2023/07/05 10:49:55;;;;;;;8.60;7.57;;;25.20;92.70;;;;;;5034855;28;20491;-79
2023/07/05 10:52:24;;;;;;;7.50;6.53;;;25.30;92.90;;;;;;5034126;28;20500;-79
2023/07/05 10:55:07;;;;;;;7.20;6.47;;;25.30;92.70;;;;;;5034405;28;20467;-80
2023/07/05 10:57:40;;;;;;;7.33;6.63;;;25.40;92.80;;;;;;5038002;28;20875;-79
2023/07/05 11:00:21;;;;;;;7.87;7.10;;;25.50;92.80;;;;;;5034773;28;20547;-78
2023/07/05 11:02:55;;;;;;;6.77;5.90;;;25.60;92.90;;;;;;5033938;28;20476;-78
2023/07/05 11:05:28;;;;;;;6.03;5.43;;;25.60;92.80;;;;;;5033741;28;20509;-79
2023/07/05 11:08:00;;;;;;;7.93;6.13;;;25.60;92.80;;;;;;5033652;28;20480;-79
2023/07/05 11:10:29;;;;;;;5.50;5.10;;;25.40;92.80;;;;;;5034493;28;20460;-78
2023/07/05 11:13:05;;;;;;;6.20;5.60;;;25.40;92.90;;;;;;5033402;28;20472;-79
2023/07/05 11:15:35;;;;;;;10.43;5.47;;;25.40;93.10;;;;;;5034403;28;20490;-79
2023/07/05 11:18:04;;;;;;;7.63;4.10;;;25.20;93.80;;;;;;5033528;28;20469;-79
2023/07/05 11:20:47;;;;;;;10.13;8.53;;;25.20;95.00;;;;;;5033992;28;20966;-80
2023/07/05 11:23:54;;;;;;;9.27;8.40;;;25.10;95.70;;;;;;5033686;28;20901;-79
2023/07/05 11:26:34;;;;;;;7.10;5.80;;;25.00;96.20;;;;;;5033308;28;20464;-80
2023/07/05 11:29:02;;;;;;;5.40;4.90;;;24.90;96.00;;;;;;5032654;28;20557;-80
2023/07/05 11:31:57;;;;;;;5.23;4.73;;;24.90;96.20;;;;;;5033252;28;20480;-80
2023/07/05 11:34:41;;;;;;;6.10;4.80;;;25.00;96.80;;;;;;5021769;28;20467;-79
2023/07/05 11:37:41;;;;;;;5.43;4.60;;;24.90;96.40;;;;;;5033367;28;20476;-79
2023/07/05 11:40:42;;;;;;;5.53;4.20;;;24.90;96.50;;;;;;5032094;28;20768;-78
2023/07/05 11:43:23;;;;;;;5.90;5.00;;;24.90;96.50;;;;;;5032297;28;20483;-79
2023/07/05 11:45:51;;;;;;;5.47;3.77;;;25.00;96.60;;;;;;5033828;28;20471;-79
2023/07/05 11:48:38;;;;;;;5.70;5.20;;;24.90;96.50;;;;;;5035277;28;20533;-79
2023/07/05 11:51:23;;;;;;;5.10;4.20;;;25.00;96.50;;;;;;5034645;28;20476;-80
2023/07/05 11:53:54;;;;;;;5.53;3.90;;;24.90;96.40;;;;;;5033853;28;20465;-79
2023/07/05 11:56:24;;;;;;;4.90;3.80;;;25.00;96.40;;;;;;5033833;28;20472;-80
2023/07/05 11:58:55;;;;;;;5.20;3.43;;;25.00;96.50;;;;;;5037240;28;20508;-79
2023/07/05 12:01:28;;;;;;;5.57;3.83;;;24.90;96.10;;;;;;5037429;28;20556;-80
2023/07/05 12:04:00;;;;;;;4.07;3.67;;;24.80;96.00;;;;;;5039166;28;20507;-79
2023/07/05 12:06:42;;;;;;;6.30;4.90;;;24.80;96.30;;;;;;5010737;28;20470;-79
2023/07/05 12:09:16;;;;;;;9.80;8.47;;;24.80;96.30;;;;;;5036492;28;20467;-79
2023/07/05 12:11:43;;;;;;;9.00;5.20;;;24.80;96.40;;;;;;5037213;28;20468;-79
2023/07/05 12:14:15;;;;;;;5.40;3.23;;;24.80;96.50;;;;;;5037707;28;20479;-79
2023/07/05 12:16:43;;;;;;;6.57;3.37;;;24.80;96.40;;;;;;5037343;28;20541;-79
2023/07/05 12:19:18;;;;;;;4.17;3.30;;;24.80;96.00;;;;;;5037013;28;20463;-79
2023/07/05 12:21:53;;;;;;;3.57;3.23;;;24.90;95.80;;;;;;5037205;28;20522;-79
2023/07/05 12:24:20;;;;;;;4.20;2.83;;;24.90;95.40;;;;;;5036360;28;20482;-78
2023/07/05 12:26:47;;;;;;;4.30;3.50;;;25.00;95.50;;;;;;5036326;28;20962;-80
2023/07/05 12:29:24;;;;;;;6.23;3.27;;;25.10;95.40;;;;;;5035902;28;20468;-78
2023/07/05 12:32:03;;;;;;;3.03;2.73;;;25.10;95.60;;;;;;5037612;28;20474;-78
2023/07/05 12:34:30;;;;;;;8.60;6.60;;;25.20;95.50;;;;;;5036843;28;20535;-79
2023/07/05 12:36:58;;;;;;;5.20;3.23;;;25.20;95.30;;;;;;5036808;28;20468;-78
2023/07/05 12:39:26;;;;;;;7.20;3.30;;;25.30;94.90;;;;;;5009504;28;20472;-78
2023/07/05 12:42:02;;;;;;;3.67;3.37;;;25.30;94.90;;;;;;5035977;28;21017;-79
2023/07/05 12:44:33;;;;;;;3.77;3.30;;;25.20;94.90;;;;;;5035918;28;20460;-78
2023/07/05 12:47:15;;;;;;;3.90;2.80;;;25.30;95.10;;;;;;5036363;28;20467;-79
2023/07/05 12:49:42;;;;;;;2.67;2.43;;;25.30;94.90;;;;;;5035749;28;20464;-79
2023/07/05 12:52:21;;;;;;;3.20;2.90;;;25.30;94.90;;;;;;5036445;28;20478;-78
2023/07/05 12:54:48;;;;;;;4.47;2.40;;;25.30;94.60;;;;;;5036254;28;20844;-79
2023/07/05 12:57:21;;;;;;;4.40;2.63;;;25.20;94.50;;;;;;5036347;28;20513;-79
2023/07/05 12:59:50;;;;;;;2.47;2.27;;;25.30;94.50;;;;;;5035917;28;20559;-81
2023/07/05 13:02:26;;;;;;;3.40;2.70;;;25.40;94.70;;;;;;5036082;28;20468;-80